createdAt,value
2022-10-17T00:01:18.285Z,9.20
2022-10-17T00:03:46.973Z,12.27
2022-10-17T00:06:16.793Z,7.68
2022-10-17T00:08:45.735Z,10.85
2022-10-17T00:11:17.773Z,8.63
2022-10-17T00:13:46.577Z,9.75
2022-10-17T00:16:15.424Z,10.13
2022-10-17T00:18:45.274Z,8.10
2022-10-17T00:21:17.400Z,10.00
2022-10-17T00:23:46.041Z,6.85
2022-10-17T00:26:15.807Z,10.20
2022-10-17T00:28:44.380Z,10.70
2022-10-17T00:31:12.821Z,7.70
2022-10-17T00:33:41.272Z,9.40
2022-10-17T00:36:14.077Z,11.38
2022-10-17T00:38:43.584Z,11.77
2022-10-17T00:41:14.596Z,10.18
2022-10-17T00:43:56.686Z,10.23
2022-10-17T00:46:27.554Z,17.40
2022-10-17T00:48:57.474Z,7.18
2022-10-17T00:51:34.238Z,9.55
2022-10-17T00:54:04.332Z,8.80
2022-10-17T00:56:33.239Z,9.23
2022-10-17T00:59:02.029Z,9.43
2022-10-17T01:01:30.726Z,7.90
2022-10-17T01:03:59.756Z,8.35
2022-10-17T01:06:29.821Z,15.15
2022-10-17T01:08:58.439Z,6.22
2022-10-17T01:11:38.786Z,13.65
2022-10-17T01:14:14.480Z,9.55
2022-10-17T01:16:49.162Z,8.73
2022-10-17T01:19:57.523Z,7.70
2022-10-17T01:22:32.921Z,9.13
2022-10-17T01:25:20.145Z,8.90
2022-10-17T01:28:08.127Z,9.40
2022-10-17T01:31:04.618Z,10.90
2022-10-17T01:33:45.841Z,7.57
2022-10-17T01:36:27.057Z,7.95
2022-10-17T01:39:02.743Z,11.10
2022-10-17T01:41:40.525Z,11.70
2022-10-17T01:44:14.727Z,9.73
2022-10-17T01:46:49.948Z,5.75
2022-10-17T01:49:23.963Z,8.98
2022-10-17T01:52:00.343Z,6.38
2022-10-17T01:54:34.174Z,10.02
2022-10-17T01:57:08.803Z,10.95
2022-10-17T01:59:41.113Z,10.20
2022-10-17T02:02:12.863Z,7.95
2022-10-17T02:04:42.635Z,13.55
2022-10-17T02:07:13.694Z,9.50
2022-10-17T02:09:42.355Z,8.48
2022-10-17T02:12:35.136Z,7.45
2022-10-17T02:15:30.350Z,6.63
2022-10-17T02:18:13.188Z,10.82
2022-10-17T02:20:50.949Z,7.68
2022-10-17T02:23:28.901Z,14.25
2022-10-17T02:26:06.126Z,11.25
2022-10-17T02:28:44.649Z,5.95
2022-10-17T02:31:18.147Z,11.07
2022-10-17T02:33:52.313Z,8.60
2022-10-17T02:36:25.152Z,10.60
2022-10-17T02:38:55.972Z,7.13
2022-10-17T02:41:26.347Z,9.95
2022-10-17T02:43:57.702Z,6.53
2022-10-17T02:46:31.886Z,6.80
2022-10-17T02:49:04.449Z,13.02
2022-10-17T02:51:41.693Z,6.57
2022-10-17T02:54:18.451Z,7.93
2022-10-17T02:56:51.974Z,7.20
2022-10-17T02:59:24.231Z,9.98
2022-10-17T03:01:53.301Z,9.10
2022-10-17T03:04:23.214Z,9.15
2022-10-17T03:06:51.804Z,4.45
2022-10-17T03:09:20.287Z,13.30
2022-10-17T03:11:48.720Z,10.80
2022-10-17T03:14:17.217Z,4.88
2022-10-17T03:16:45.773Z,7.47
2022-10-17T03:19:15.067Z,9.13
2022-10-17T03:21:44.971Z,7.47
2022-10-17T03:24:14.040Z,6.70
2022-10-17T03:26:42.465Z,6.40
2022-10-17T03:29:11.237Z,6.00
2022-10-17T03:31:40.404Z,7.10
2022-10-17T03:34:09.742Z,6.88
2022-10-17T03:36:38.180Z,5.05
2022-10-17T03:39:08.104Z,6.32
2022-10-17T03:41:36.730Z,4.13
2022-10-17T03:44:05.525Z,8.52
2022-10-17T03:46:34.038Z,9.73
2022-10-17T03:49:02.534Z,9.43
2022-10-17T03:51:31.964Z,6.45
2022-10-17T03:54:04.914Z,8.95
2022-10-17T03:56:34.887Z,10.23
2022-10-17T03:59:13.753Z,7.05
2022-10-17T04:01:44.162Z,9.77
2022-10-17T04:04:13.957Z,6.68
2022-10-17T04:06:42.558Z,7.82
2022-10-17T04:09:12.777Z,6.07
2022-10-17T04:12:06.230Z,7.50
2022-10-17T04:14:36.285Z,9.23
2022-10-17T04:17:05.039Z,5.90
2022-10-17T04:19:34.959Z,13.43
2022-10-17T04:22:04.407Z,5.63
2022-10-17T04:24:36.232Z,4.78
2022-10-17T04:27:12.386Z,8.43
2022-10-17T04:29:45.323Z,10.13
2022-10-17T04:32:23.619Z,7.78
2022-10-17T04:35:05.822Z,4.10
2022-10-17T04:37:35.177Z,6.38
2022-10-17T04:40:10.743Z,9.68
2022-10-17T04:42:40.747Z,14.05
2022-10-17T04:45:11.594Z,12.77
2022-10-17T04:47:40.273Z,7.35
2022-10-17T04:50:09.594Z,7.57
2022-10-17T04:52:38.357Z,11.07
2022-10-17T04:55:07.820Z,6.65
2022-10-17T04:57:37.090Z,4.03
2022-10-17T05:00:19.975Z,6.03
2022-10-17T05:06:00.107Z,11.85
2022-10-17T05:08:28.620Z,10.35
2022-10-17T05:10:57.105Z,6.85
2022-10-17T05:13:25.631Z,4.95
2022-10-17T05:15:59.321Z,10.48
2022-10-17T05:18:28.257Z,7.35
2022-10-17T05:20:57.388Z,7.70
2022-10-17T05:23:26.294Z,5.47
2022-10-17T05:25:58.188Z,6.05
2022-10-17T05:28:28.691Z,7.78
2022-10-17T05:31:05.564Z,9.57
2022-10-17T05:33:34.403Z,11.02
2022-10-17T05:36:03.225Z,6.80
2022-10-17T05:38:31.769Z,8.70
2022-10-17T05:41:00.852Z,5.28
2022-10-17T05:43:30.529Z,5.97
2022-10-17T05:45:59.094Z,8.32
2022-10-17T05:48:30.412Z,9.68
2022-10-17T05:51:01.024Z,6.38
2022-10-17T05:53:32.294Z,9.00
2022-10-17T05:56:07.176Z,8.68
2022-10-17T05:58:49.690Z,6.40
2022-10-17T06:01:30.919Z,10.75
2022-10-17T06:04:00.973Z,6.18
2022-10-17T06:06:29.460Z,6.65
2022-10-17T06:08:58.005Z,3.35
2022-10-17T06:11:31.841Z,10.77
2022-10-17T06:14:01.089Z,12.10
2022-10-17T06:16:30.874Z,8.32
2022-10-17T06:19:00.783Z,4.10
2022-10-17T06:21:29.659Z,6.47
2022-10-17T06:24:08.086Z,6.53
2022-10-17T06:26:38.655Z,8.68
2022-10-17T06:29:09.362Z,6.53
2022-10-17T06:31:44.679Z,5.00
2022-10-17T06:34:14.961Z,10.60
2022-10-17T06:36:43.700Z,18.73
2022-10-17T06:39:12.965Z,5.60
2022-10-17T06:41:51.325Z,6.85
2022-10-17T06:44:22.379Z,10.75
2022-10-17T06:46:58.186Z,4.90
2022-10-17T06:49:28.615Z,7.00
2022-10-17T06:52:35.824Z,12.68
2022-10-17T06:55:43.053Z,8.18
2022-10-17T06:58:25.052Z,5.47
2022-10-17T07:01:26.733Z,6.22
2022-10-17T07:03:58.982Z,6.65
2022-10-17T07:06:29.180Z,6.53
2022-10-17T07:09:02.774Z,9.25
2022-10-17T07:11:31.251Z,6.20
2022-10-17T07:14:00.093Z,9.40
2022-10-17T07:16:28.767Z,9.15
2022-10-17T07:19:04.934Z,16.58
2022-10-17T07:21:39.347Z,9.75
2022-10-17T07:24:10.104Z,6.85
2022-10-17T07:26:39.767Z,6.95
2022-10-17T07:29:08.598Z,11.57
2022-10-17T07:31:41.527Z,6.13
2022-10-17T07:34:10.181Z,5.07
2022-10-17T07:36:40.172Z,5.78
2022-10-17T07:39:09.634Z,7.15
2022-10-17T07:41:39.632Z,8.00
2022-10-17T07:44:08.711Z,10.98
2022-10-17T07:46:43.475Z,11.10
2022-10-17T07:49:14.875Z,13.88
2022-10-17T07:51:44.853Z,19.35
2022-10-17T07:54:14.152Z,19.30
2022-10-17T07:56:42.562Z,18.83
2022-10-17T07:59:11.191Z,12.30
2022-10-17T08:01:39.615Z,17.83
2022-10-17T08:04:08.049Z,11.77
2022-10-17T08:06:36.511Z,9.23
2022-10-17T08:09:07.011Z,9.95
2022-10-17T08:11:36.642Z,9.10
2022-10-17T08:14:05.156Z,15.10
2022-10-17T08:16:33.616Z,9.27
2022-10-17T08:19:02.641Z,11.68
2022-10-17T08:21:31.363Z,15.07
2022-10-17T08:24:00.197Z,19.02
2022-10-17T08:26:30.808Z,10.23
2022-10-17T08:28:59.506Z,13.00
2022-10-17T08:31:28.443Z,13.30
2022-10-17T08:33:56.980Z,13.52
2022-10-17T08:36:25.718Z,10.18
2022-10-17T08:38:54.159Z,13.27
2022-10-17T08:41:37.718Z,9.23
2022-10-17T08:44:16.613Z,17.27
2022-10-17T08:46:49.311Z,20.25
2022-10-17T08:49:23.009Z,17.55
2022-10-17T08:51:55.856Z,13.15
2022-10-17T08:54:33.332Z,15.88
2022-10-17T08:57:03.276Z,18.60
2022-10-17T08:59:33.575Z,19.60
2022-10-17T09:02:05.473Z,14.73
2022-10-17T09:04:56.439Z,16.60
2022-10-17T09:07:33.793Z,11.75
2022-10-17T09:10:11.732Z,11.90
2022-10-17T09:12:50.232Z,13.50
2022-10-17T09:15:39.000Z,13.13
2022-10-17T09:18:12.932Z,12.20
2022-10-17T09:20:46.882Z,8.00
2022-10-17T09:23:19.814Z,9.85
2022-10-17T09:25:51.266Z,11.90
2022-10-17T09:28:27.156Z,10.13
2022-10-17T09:31:00.822Z,10.07
2022-10-17T09:33:42.274Z,9.73
2022-10-17T09:36:24.214Z,8.23
2022-10-17T09:38:55.776Z,10.85
2022-10-17T09:41:44.717Z,9.52
2022-10-17T09:44:21.989Z,8.73
2022-10-17T09:47:24.388Z,13.77
2022-10-17T09:49:53.382Z,17.92
2022-10-17T09:52:26.431Z,12.18
2022-10-17T09:54:59.097Z,10.52
2022-10-17T09:57:27.625Z,7.90
2022-10-17T10:00:02.484Z,12.25
2022-10-17T10:02:33.708Z,12.93
2022-10-17T10:05:06.302Z,5.28
2022-10-17T10:07:38.514Z,10.35
2022-10-17T10:10:15.640Z,15.48
2022-10-17T10:13:03.758Z,14.43
2022-10-17T10:15:37.907Z,6.88
2022-10-17T10:21:10.093Z,8.50
2022-10-17T10:23:41.202Z,6.68
2022-10-17T10:26:25.041Z,8.07
2022-10-17T10:28:58.344Z,7.90
2022-10-17T10:31:36.981Z,6.72
2022-10-17T10:34:17.538Z,9.27
2022-10-17T10:36:50.032Z,8.43
2022-10-17T10:39:37.406Z,9.23
2022-10-17T10:42:10.362Z,3.78
2022-10-17T10:44:42.186Z,12.82
2022-10-17T10:47:24.727Z,5.43
2022-10-17T10:50:07.482Z,5.60
2022-10-17T10:52:42.775Z,11.77
2022-10-17T10:55:26.657Z,4.78
2022-10-17T10:57:59.649Z,1.27
2022-10-17T11:00:31.016Z,9.43
2022-10-17T11:03:12.835Z,10.77
2022-10-17T11:05:47.498Z,9.30
2022-10-17T11:08:25.783Z,12.25
2022-10-17T11:11:18.168Z,3.95
2022-10-17T11:13:54.069Z,8.63
2022-10-17T11:16:32.462Z,6.00
2022-10-17T11:19:13.576Z,9.48
2022-10-17T11:21:48.618Z,17.38
2022-10-17T11:24:24.834Z,11.10
2022-10-17T11:27:00.176Z,9.00
2022-10-17T11:29:32.317Z,11.18
2022-10-17T11:32:07.150Z,25.02
2022-10-17T11:34:42.995Z,8.68
2022-10-17T11:37:16.458Z,11.57
2022-10-17T11:39:50.014Z,13.23
2022-10-17T11:42:24.932Z,10.48
2022-10-17T11:44:58.167Z,7.25
2022-10-17T11:47:38.472Z,9.82
2022-10-17T11:53:15.398Z,25.02
2022-10-17T11:55:45.527Z,11.93
2022-10-17T11:58:37.691Z,10.40
2022-10-17T12:01:16.714Z,4.78
2022-10-17T12:03:54.437Z,5.20
2022-10-17T12:06:43.696Z,9.32
2022-10-17T12:09:25.320Z,5.53
2022-10-17T12:11:57.120Z,8.30
2022-10-17T12:14:41.276Z,7.50
2022-10-17T12:17:29.296Z,9.48
2022-10-17T12:20:27.412Z,4.82
2022-10-17T12:23:00.338Z,7.00
2022-10-17T12:25:31.633Z,8.98
2022-10-17T12:28:13.434Z,9.70
2022-10-17T12:30:55.169Z,9.65
2022-10-17T12:33:39.732Z,4.72
2022-10-17T12:36:44.869Z,15.60
2022-10-17T12:39:52.428Z,6.57
2022-10-17T12:42:52.313Z,12.57
2022-10-17T12:45:49.210Z,13.18
2022-10-17T12:48:57.083Z,5.35
2022-10-17T12:51:40.745Z,13.30
2022-10-17T12:54:13.667Z,5.32
2022-10-17T12:56:44.804Z,9.10
2022-10-17T12:59:18.933Z,7.15
2022-10-17T13:01:50.885Z,11.18
2022-10-17T13:04:19.690Z,4.45
2022-10-17T13:06:50.531Z,30.83
2022-10-17T13:09:25.707Z,18.30
2022-10-17T13:11:55.408Z,9.90
2022-10-17T13:14:27.043Z,26.90
2022-10-17T13:16:57.625Z,26.92
2022-10-17T13:19:29.781Z,12.82
2022-10-17T13:22:06.330Z,22.42
2022-10-17T13:24:37.404Z,9.50
2022-10-17T13:27:07.274Z,6.05
2022-10-17T13:29:45.185Z,7.60
2022-10-17T13:32:13.987Z,6.07
2022-10-17T13:34:42.434Z,3.88
2022-10-17T13:37:16.626Z,9.65
2022-10-17T13:40:00.297Z,9.13
2022-10-17T13:42:40.508Z,10.27
2022-10-17T13:45:20.245Z,8.48
2022-10-17T13:47:49.423Z,16.00
2022-10-17T13:50:44.085Z,10.98
2022-10-17T13:53:25.690Z,6.10
2022-10-17T13:56:22.952Z,12.75
2022-10-17T13:58:50.228Z,9.10
2022-10-17T14:01:21.917Z,11.48
2022-10-17T14:04:02.026Z,14.10
2022-10-17T14:06:45.096Z,13.13
2022-10-17T14:09:23.970Z,34.55
2022-10-17T14:12:02.011Z,21.25
2022-10-17T14:14:46.181Z,13.40
2022-10-17T14:17:26.137Z,12.57
2022-10-17T14:20:26.261Z,24.00
2022-10-17T14:23:04.394Z,10.38
2022-10-17T14:25:37.943Z,36.25
2022-10-17T14:28:15.955Z,16.55
2022-10-17T14:31:01.152Z,7.30
2022-10-17T14:33:33.900Z,12.10
2022-10-17T14:36:05.691Z,5.95
2022-10-17T14:38:36.049Z,9.55
2022-10-17T14:41:37.742Z,7.57
2022-10-17T14:44:03.280Z,9.20
2022-10-17T14:46:32.075Z,7.80
2022-10-17T14:49:07.138Z,26.58
2022-10-17T14:51:50.251Z,27.52
2022-10-17T14:54:29.249Z,18.65
2022-10-17T14:56:57.673Z,23.95
2022-10-17T14:59:52.349Z,16.00
2022-10-17T15:02:14.972Z,8.48
2022-10-17T15:04:44.829Z,8.07
2022-10-17T15:07:16.420Z,37.95
2022-10-17T15:09:46.147Z,13.80
2022-10-17T15:12:17.070Z,16.70
2022-10-17T15:14:45.922Z,16.65
2022-10-17T15:17:16.859Z,11.60
2022-10-17T15:19:46.818Z,9.25
2022-10-17T15:22:16.342Z,36.88
2022-10-17T15:24:46.303Z,22.45
2022-10-17T15:27:19.726Z,16.50
2022-10-17T15:29:48.918Z,9.70
2022-10-17T15:32:18.384Z,15.25
2022-10-17T15:34:48.282Z,9.13
2022-10-17T15:37:21.023Z,11.52
2022-10-17T15:39:53.725Z,7.85
2022-10-17T15:42:23.449Z,13.18
2022-10-17T15:44:52.138Z,11.63
2022-10-17T15:47:26.309Z,7.32
2022-10-17T15:49:56.430Z,11.50
2022-10-17T15:52:25.935Z,11.48
2022-10-17T15:54:56.509Z,8.90
2022-10-17T15:57:29.859Z,14.30
2022-10-17T16:00:00.937Z,13.52
2022-10-17T16:02:29.553Z,18.00
2022-10-17T16:04:59.381Z,13.13
2022-10-17T16:07:28.004Z,13.38
2022-10-17T16:09:56.640Z,10.45
2022-10-17T16:12:31.262Z,20.55
2022-10-17T16:14:59.917Z,13.18
2022-10-17T16:17:28.574Z,11.73
2022-10-17T16:19:57.221Z,19.40
2022-10-17T16:22:32.540Z,18.15
2022-10-17T16:25:08.003Z,107.65
2022-10-17T16:27:36.541Z,20.02
2022-10-17T16:30:06.685Z,11.68
2022-10-17T16:32:35.596Z,9.20
2022-10-17T16:35:04.197Z,11.32
2022-10-17T16:37:34.102Z,14.93
2022-10-17T16:40:02.542Z,7.28
2022-10-17T16:42:31.135Z,10.52
2022-10-17T16:45:00.160Z,6.80
2022-10-17T16:47:28.602Z,27.33
2022-10-17T16:49:57.291Z,21.27
2022-10-17T16:52:25.702Z,16.42
2022-10-17T16:54:55.509Z,7.60
2022-10-17T16:57:24.513Z,15.00
2022-10-17T16:59:53.341Z,10.05
2022-10-17T17:02:21.845Z,12.30
2022-10-17T17:04:50.367Z,8.30
2022-10-17T17:07:20.012Z,12.68
2022-10-17T17:09:49.042Z,7.88
2022-10-17T17:12:18.928Z,15.40
2022-10-17T17:14:47.424Z,9.10
2022-10-17T17:17:24.647Z,11.32
2022-10-17T17:20:04.936Z,18.05
2022-10-17T17:22:33.423Z,9.52
2022-10-17T17:25:01.936Z,12.68
2022-10-17T17:27:32.185Z,8.38
2022-10-17T17:30:00.760Z,11.95
2022-10-17T17:32:29.199Z,7.10
2022-10-17T17:34:57.654Z,8.60
2022-10-17T17:37:26.589Z,10.43
2022-10-17T17:39:55.189Z,11.10
2022-10-17T17:42:23.700Z,10.50
2022-10-17T17:44:53.537Z,14.77
2022-10-17T17:47:22.712Z,12.70
2022-10-17T17:49:51.398Z,21.02
2022-10-17T17:52:20.246Z,12.80
2022-10-17T17:54:48.660Z,13.25
2022-10-17T17:57:18.308Z,13.02
2022-10-17T17:59:48.631Z,13.25
2022-10-17T18:02:18.833Z,8.27
2022-10-17T18:04:47.476Z,12.15
2022-10-17T18:07:15.923Z,14.30
2022-10-17T18:09:44.420Z,24.27
2022-10-17T18:12:12.910Z,18.08
2022-10-17T18:14:41.636Z,21.05
2022-10-17T18:17:10.139Z,11.70
2022-10-17T18:19:40.065Z,15.60
2022-10-17T18:22:08.447Z,9.20
2022-10-17T18:24:36.996Z,18.88
2022-10-17T18:27:05.626Z,12.65
2022-10-17T18:29:34.529Z,18.67
2022-10-17T18:32:03.059Z,27.48
2022-10-17T18:34:31.525Z,34.67
2022-10-17T18:37:02.730Z,22.88
2022-10-17T18:39:31.246Z,25.05
2022-10-17T18:42:00.023Z,31.08
2022-10-17T18:44:28.739Z,23.05
2022-10-17T18:47:02.999Z,25.23
2022-10-17T18:49:33.088Z,18.70
2022-10-17T18:52:02.961Z,27.77
2022-10-17T18:54:33.563Z,20.33
2022-10-17T18:57:02.126Z,24.25
2022-10-17T18:59:30.554Z,18.98
2022-10-17T19:01:59.065Z,24.33
2022-10-17T19:04:27.884Z,15.25
2022-10-17T19:06:56.388Z,22.13
2022-10-17T19:09:26.515Z,19.60
2022-10-17T19:11:55.352Z,24.63
2022-10-17T19:14:23.789Z,25.83
2022-10-17T19:16:52.536Z,19.52
2022-10-17T19:19:22.983Z,24.45
2022-10-17T19:21:51.877Z,22.08
2022-10-17T19:24:22.027Z,22.48
2022-10-17T19:26:53.829Z,22.15
2022-10-17T19:29:24.374Z,21.65
2022-10-17T19:31:53.528Z,32.65
2022-10-17T19:34:22.025Z,30.67
2022-10-17T19:36:50.684Z,35.05
2022-10-17T19:39:22.815Z,36.38
2022-10-17T19:41:53.072Z,34.05
2022-10-17T19:44:21.528Z,31.20
2022-10-17T19:46:49.971Z,36.47
2022-10-17T19:49:19.082Z,37.58
2022-10-17T19:51:47.838Z,58.92
2022-10-17T19:54:18.799Z,48.55
2022-10-17T19:56:47.372Z,53.85
2022-10-17T19:59:18.439Z,46.33
2022-10-17T20:01:47.459Z,48.05
2022-10-17T20:04:15.995Z,47.20
2022-10-17T20:06:44.493Z,36.33
2022-10-17T20:09:16.711Z,34.88
2022-10-17T20:11:50.387Z,37.95
2022-10-17T20:14:20.191Z,40.22
2022-10-17T20:16:53.225Z,35.85
2022-10-17T20:19:22.014Z,41.80
2022-10-17T20:21:50.488Z,39.58
2022-10-17T20:24:19.041Z,36.22
2022-10-17T20:26:47.588Z,33.65
2022-10-17T20:29:23.709Z,37.45
2022-10-17T20:31:53.506Z,37.75
2022-10-17T20:34:21.919Z,41.92
2022-10-17T20:36:50.747Z,36.17
2022-10-17T20:39:35.332Z,36.35
2022-10-17T20:42:03.880Z,45.10
2022-10-17T20:44:32.565Z,34.80
2022-10-17T20:47:02.967Z,41.38
2022-10-17T20:49:33.497Z,46.13
2022-10-17T20:52:02.558Z,37.28
2022-10-17T20:54:32.506Z,29.98
2022-10-17T20:57:04.053Z,35.30
2022-10-17T20:59:34.430Z,34.85
2022-10-17T21:02:04.848Z,33.10
2022-10-17T21:04:46.290Z,31.48
2022-10-17T21:07:16.082Z,38.15
2022-10-17T21:09:45.530Z,38.55
2022-10-17T21:12:21.637Z,31.52
2022-10-17T21:14:59.983Z,36.92
2022-10-17T21:17:29.968Z,32.95
2022-10-17T21:19:58.983Z,26.58
2022-10-17T21:22:27.555Z,21.52
2022-10-17T21:24:56.680Z,28.45
2022-10-17T21:27:25.104Z,26.52
2022-10-17T21:29:53.615Z,29.45
2022-10-17T21:32:33.475Z,32.80
2022-10-17T21:35:10.628Z,27.73
2022-10-17T21:37:39.108Z,33.97
2022-10-17T21:40:08.819Z,37.80
2022-10-17T21:42:37.291Z,27.67
2022-10-17T21:45:15.357Z,24.40
2022-10-17T21:48:11.631Z,24.23
2022-10-17T21:50:38.515Z,22.77
2022-10-17T21:53:07.173Z,23.42
2022-10-17T21:55:38.519Z,24.55
2022-10-17T21:58:07.192Z,29.15
2022-10-17T22:00:35.614Z,27.92
2022-10-17T22:03:04.208Z,34.00
2022-10-17T22:05:32.738Z,37.40
2022-10-17T22:08:02.878Z,20.40
2022-10-17T22:10:31.391Z,21.33
2022-10-17T22:12:59.923Z,27.98
2022-10-17T22:15:28.343Z,30.27
2022-10-17T22:17:57.347Z,28.80
2022-10-17T22:20:25.949Z,31.52
2022-10-17T22:22:54.390Z,28.05
2022-10-17T22:25:48.280Z,33.80
2022-10-17T22:28:20.054Z,31.17
2022-10-17T22:30:48.583Z,33.80
2022-10-17T22:33:17.094Z,35.88
2022-10-17T22:35:52.535Z,31.73
2022-10-17T22:38:21.007Z,27.08
2022-10-17T22:40:50.905Z,29.67
2022-10-17T22:43:19.308Z,41.30
2022-10-17T22:45:53.654Z,33.88
2022-10-17T22:48:22.325Z,31.20
2022-10-17T22:50:51.330Z,27.88
2022-10-17T22:53:24.062Z,41.00
2022-10-17T22:55:54.942Z,36.90
2022-10-17T22:58:24.512Z,40.83
2022-10-17T23:00:53.967Z,36.78
2022-10-17T23:03:24.214Z,41.00
2022-10-17T23:05:52.836Z,24.42
2022-10-17T23:08:21.883Z,27.17
2022-10-17T23:10:50.502Z,29.08
2022-10-17T23:13:21.424Z,35.80
2022-10-17T23:15:52.923Z,34.75
2022-10-17T23:18:22.781Z,31.88
2022-10-17T23:20:51.745Z,31.70
2022-10-17T23:23:20.915Z,31.98
2022-10-17T23:25:49.909Z,30.75
2022-10-17T23:28:19.785Z,27.83
2022-10-17T23:30:48.282Z,30.77
2022-10-17T23:33:16.782Z,27.63
2022-10-17T23:35:45.428Z,36.70
2022-10-17T23:38:13.914Z,31.40
2022-10-17T23:40:42.414Z,32.72
2022-10-17T23:43:10.844Z,30.67
2022-10-17T23:48:14.065Z,35.97
2022-10-17T23:50:42.533Z,27.67
2022-10-17T23:53:11.070Z,31.17
2022-10-17T23:55:39.834Z,30.50
2022-10-17T23:58:08.310Z,30.33
